createdAt,value
2024-05-09T00:03:47.807Z,13.4336
2024-05-09T00:13:58.830Z,13.3989
2024-05-09T00:24:09.664Z,13.3686
2024-05-09T00:34:20.686Z,13.3417
2024-05-09T00:44:31.802Z,13.3072
2024-05-09T00:54:42.707Z,13.2803
2024-05-09T01:04:53.695Z,13.2417
2024-05-09T01:15:04.476Z,13.2197
2024-05-09T01:25:15.383Z,13.1856
2024-05-09T01:35:26.206Z,13.1542
2024-05-09T01:45:37.030Z,13.1281
2024-05-09T01:55:47.979Z,13.0992
2024-05-09T02:05:58.637Z,13.0692
2024-05-09T02:16:09.569Z,13.0519
2024-05-09T02:26:20.356Z,13.0289
2024-05-09T02:36:30.913Z,13.0114
2024-05-09T02:46:41.793Z,12.9878
2024-05-09T02:56:52.527Z,12.9658
2024-05-09T03:07:03.204Z,12.9503
2024-05-09T03:17:14.046Z,12.9356
2024-05-09T03:27:24.779Z,12.9139
2024-05-09T03:37:36.087Z,12.8975
2024-05-09T03:47:47.134Z,12.8831
2024-05-09T03:57:58.132Z,12.8733
2024-05-09T04:08:09.049Z,12.8578
2024-05-09T04:18:19.871Z,12.8403
2024-05-09T04:28:30.526Z,12.8261
2024-05-09T04:38:41.193Z,12.8100
2024-05-09T04:48:52.172Z,12.7939
2024-05-09T04:59:02.788Z,12.7817
2024-05-09T05:09:13.799Z,12.7689
2024-05-09T05:19:24.436Z,12.7567
2024-05-09T05:29:38.101Z,12.7437
2024-05-09T05:39:48.631Z,12.7300
2024-05-09T05:49:59.442Z,12.7219
2024-05-09T06:00:10.001Z,12.7150
2024-05-09T06:10:26.413Z,12.7003
2024-05-09T06:20:39.214Z,12.6917
2024-05-09T06:30:49.606Z,12.6800
2024-05-09T06:40:59.817Z,12.6756
2024-05-09T06:51:09.954Z,12.6686
2024-05-09T07:01:20.091Z,12.6639
2024-05-09T07:11:30.182Z,12.6650
2024-05-09T07:21:40.331Z,12.6636
2024-05-09T07:31:50.553Z,12.6706
2024-05-09T07:42:00.689Z,12.6847
2024-05-09T07:53:29.182Z,12.6836
2024-05-09T08:02:26.891Z,12.6928
2024-05-09T08:12:36.807Z,12.7019
2024-05-09T08:22:46.765Z,12.7108
2024-05-09T08:32:56.676Z,12.7189
2024-05-09T08:43:06.905Z,12.7292
2024-05-09T08:53:16.833Z,12.7464
2024-05-09T09:03:26.589Z,12.7631
2024-05-09T09:13:36.734Z,12.7772
2024-05-09T09:23:46.713Z,12.7958
2024-05-09T09:33:56.802Z,12.8111
2024-05-09T09:44:06.810Z,12.8264
2024-05-09T09:54:16.399Z,12.8478
2024-05-09T10:04:26.201Z,12.8617
2024-05-09T10:14:35.590Z,12.8908
2024-05-09T10:24:44.711Z,12.9108
2024-05-09T10:34:54.690Z,12.9447
2024-05-09T10:45:03.762Z,12.9781
2024-05-09T10:55:13.086Z,13.0072
2024-05-09T11:05:22.696Z,13.0489
2024-05-09T11:15:31.993Z,13.0931
2024-05-09T11:25:41.187Z,13.1422
2024-05-09T11:35:50.145Z,13.1856
2024-05-09T11:45:59.181Z,13.2336
2024-05-09T11:56:08.401Z,13.2825
2024-05-09T12:06:17.838Z,13.3286
2024-05-09T12:16:26.960Z,13.3831
2024-05-09T12:26:35.993Z,13.4375
2024-05-09T12:36:45.250Z,13.4864
2024-05-09T12:46:54.724Z,13.5300
2024-05-09T12:57:03.539Z,13.5814
2024-05-09T13:07:12.429Z,13.6236
2024-05-09T13:17:21.434Z,13.6744
2024-05-09T13:27:30.629Z,13.7203
2024-05-09T13:37:39.450Z,13.7703
2024-05-09T13:47:48.573Z,13.8150
2024-05-09T13:57:57.473Z,13.8658
2024-05-09T14:08:06.455Z,13.9075
2024-05-09T14:18:15.580Z,13.9583
2024-05-09T14:28:24.805Z,13.9997
2024-05-09T14:38:34.054Z,14.0469
2024-05-09T14:48:43.371Z,14.0881
2024-05-09T14:58:52.832Z,14.1372
2024-05-09T15:09:01.966Z,14.1761
2024-05-09T15:19:11.903Z,14.2181
2024-05-09T15:29:21.131Z,14.2528
2024-05-09T15:39:30.422Z,14.2964
2024-05-09T15:49:39.858Z,14.3297
2024-05-09T15:59:49.201Z,14.3658
2024-05-09T16:09:58.479Z,14.3919
2024-05-09T16:20:12.264Z,14.4222
2024-05-09T16:30:31.515Z,14.4506
2024-05-09T16:40:41.019Z,14.4728
2024-05-09T16:50:51.211Z,14.4986
2024-05-09T17:01:00.824Z,14.5206
2024-05-09T17:11:10.785Z,14.5294
2024-05-09T17:21:21.176Z,14.5450
2024-05-09T17:31:31.234Z,14.5575
2024-05-09T17:41:41.175Z,14.5589
2024-05-09T17:51:51.088Z,14.5753
2024-05-09T18:02:01.089Z,14.5772
2024-05-09T18:12:12.024Z,14.5711
2024-05-09T18:22:22.162Z,14.5764
2024-05-09T18:32:32.249Z,14.5675
2024-05-09T18:42:42.424Z,14.5636
2024-05-09T18:52:52.540Z,14.5494
2024-05-09T19:03:03.317Z,14.5378
2024-05-09T19:13:14.494Z,14.5294
2024-05-09T19:23:25.399Z,14.5117
2024-05-09T19:33:35.818Z,14.4953
2024-05-09T19:43:46.373Z,14.4819
2024-05-09T19:53:57.192Z,14.4572
2024-05-09T20:04:07.827Z,14.4431
2024-05-09T20:14:18.648Z,14.4150
2024-05-09T20:24:29.486Z,14.3919
2024-05-09T20:34:40.343Z,14.3628
2024-05-09T20:44:51.233Z,14.3378
2024-05-09T20:55:02.132Z,14.3011
2024-05-09T21:05:13.355Z,14.2739
2024-05-09T21:15:24.208Z,14.2458
2024-05-09T21:25:35.129Z,14.2092
2024-05-09T21:35:45.968Z,14.1742
2024-05-09T21:45:56.856Z,14.1411
2024-05-09T21:56:07.749Z,14.1131
2024-05-09T22:06:18.621Z,14.0742
2024-05-09T22:16:29.615Z,14.0342
2024-05-09T22:26:40.532Z,13.9986
2024-05-09T22:36:51.294Z,13.9661
2024-05-09T22:47:02.267Z,13.9231
2024-05-09T22:57:13.317Z,13.8883
2024-05-09T23:07:24.240Z,13.8464
2024-05-09T23:17:35.328Z,13.8022
2024-05-09T23:27:46.326Z,13.7742
2024-05-09T23:37:57.509Z,13.7306
2024-05-09T23:48:08.789Z,13.6956
2024-05-09T23:58:20.101Z,13.6542
